Time;durP1;ratioP1;P1;durP2;ratioP2;P2;SDS_P1;SDS_P2;PMS_P1;PMS_P2;Temp;Humidity;BMP_temperature;BMP_pressure;BME280_temperature;BME280_humidity;BME280_pressure;Samples;Min_cycle;Max_cycle;Signal;HPM_P1;HPM_P2
2023/03/07 00:00:36;;;;;;;2.65;2.40;;;;;;;16.76;36.21;99604.81;5090040;28;20092;-76
2023/03/07 00:03:01;;;;;;;2.88;2.60;;;;;;;17.04;36.36;99661.38;5085725;28;20133;-76
2023/03/07 00:05:26;;;;;;;3.45;2.38;;;;;;;17.03;36.26;99657.00;5086641;28;20036;-76
2023/03/07 00:07:51;;;;;;;2.20;2.00;;;;;;;17.09;36.38;99668.88;5093455;28;20521;-75
2023/03/07 00:10:17;;;;;;;2.13;1.92;;;;;;;17.09;36.45;99679.63;5089024;28;20111;-75
2023/03/07 00:12:43;;;;;;;2.20;2.00;;;;;;;17.07;36.35;99678.94;5089042;28;20032;-76
2023/03/07 00:15:09;;;;;;;2.50;2.30;;;;;;;16.69;36.46;99617.28;5089000;28;20107;-74
2023/03/07 00:17:35;;;;;;;3.13;2.63;;;;;;;16.58;36.56;99607.03;5100135;28;20032;-75
2023/03/07 00:20:01;;;;;;;2.28;2.08;;;;;;;17.06;36.54;99677.28;5086339;28;20021;-76
2023/03/07 00:22:26;;;;;;;2.20;1.90;;;;;;;16.91;36.26;99653.97;5091580;28;20028;-76
2023/03/07 00:24:52;;;;;;;2.13;2.03;;;;;;;16.35;36.27;99575.72;5090275;28;20024;-77
2023/03/07 00:27:17;;;;;;;2.20;2.00;;;;;;;17.02;36.61;99676.00;5088963;28;20038;-75
2023/03/07 00:29:42;;;;;;;2.85;2.33;;;;;;;16.47;36.41;99597.56;5088065;28;20039;-75
2023/03/07 00:32:08;;;;;;;2.35;1.70;;;;;;;17.01;36.43;99671.66;5078718;28;20052;-75
2023/03/07 00:34:33;;;;;;;2.60;2.25;;;;;;;16.59;36.49;99604.16;5093803;28;20027;-76
2023/03/07 00:36:58;;;;;;;2.10;1.90;;;;;;;16.90;36.53;99668.41;5092138;28;20028;-76
2023/03/07 00:39:23;;;;;;;2.08;1.90;;;;;;;16.98;36.38;99670.16;5095920;28;20023;-75
2023/03/07 00:41:49;;;;;;;2.22;1.90;;;;;;;16.86;36.44;99664.41;5092100;28;20040;-75
2023/03/07 00:44:14;;;;;;;3.05;2.13;;;;;;;16.97;36.43;99674.72;5093051;28;20038;-76
2023/03/07 00:46:39;;;;;;;1.85;1.75;;;;;;;16.95;36.25;99671.38;5090779;28;20035;-76
2023/03/07 00:49:05;;;;;;;2.45;2.10;;;;;;;16.86;36.63;99656.38;5096115;28;20043;-76
2023/03/07 00:51:30;;;;;;;1.80;1.70;;;;;;;16.94;36.44;99660.81;5073494;28;20050;-76
2023/03/07 00:53:55;;;;;;;2.33;1.70;;;;;;;16.94;36.59;99667.00;5093152;28;20032;-75
2023/03/07 00:56:22;;;;;;;2.13;1.77;;;;;;;16.93;36.46;99659.97;5091599;28;20469;-75
2023/03/07 00:58:48;;;;;;;1.55;1.45;;;;;;;16.92;36.39;99661.00;5096758;28;20033;-75
2023/03/07 01:01:17;;;;;;;1.92;1.77;;;;;;;16.90;36.51;99656.84;5098485;28;20035;-75
2023/03/07 01:03:42;;;;;;;2.15;1.90;;;;;;;16.83;36.50;99637.97;5090637;28;20056;-76
2023/03/07 01:06:12;;;;;;;2.10;1.90;;;;;;;16.84;36.52;99650.38;5093574;28;20481;-75
2023/03/07 01:08:37;;;;;;;2.22;2.00;;;;;;;16.90;36.64;99657.66;5095379;28;20046;-75
2023/03/07 01:11:04;;;;;;;1.77;1.65;;;;;;;16.87;36.57;99641.13;5088941;28;20032;-74
2023/03/07 01:13:30;;;;;;;1.77;1.60;;;;;;;16.89;36.60;99642.56;5077902;28;20028;-75
2023/03/07 01:16:04;;;;;;;2.20;1.90;;;;;;;16.87;36.44;99636.56;5096844;28;20100;-75
2023/03/07 01:18:30;;;;;;;2.50;1.52;;;;;;;16.87;36.48;99638.44;5094732;28;20016;-74
2023/03/07 01:20:55;;;;;;;1.80;1.70;;;;;;;16.37;36.57;99573.72;5088321;28;20055;-76
2023/03/07 01:23:20;;;;;;;1.88;1.58;;;;;;;16.84;36.73;99636.94;5096094;28;20020;-74
2023/03/07 01:25:46;;;;;;;1.80;1.63;;;;;;;16.85;36.62;99643.13;5098926;28;20052;-74
2023/03/07 01:28:13;;;;;;;2.55;1.80;;;;;;;16.78;36.58;99636.84;5092953;28;20024;-75
2023/03/07 01:30:38;;;;;;;1.73;1.63;;;;;;;16.83;36.57;99637.13;5089493;28;20052;-75
2023/03/07 01:33:07;;;;;;;2.20;1.75;;;;;;;16.35;36.46;99564.16;5100328;28;20186;-76
2023/03/07 01:35:37;;;;;;;1.98;1.70;;;;;;;16.80;36.67;99651.75;5099204;28;20028;-74
2023/03/07 01:38:06;;;;;;;2.38;1.75;;;;;;;16.69;36.51;99625.34;5090458;28;20115;-75
2023/03/07 01:40:31;;;;;;;2.50;1.80;;;;;;;16.80;36.92;99645.56;5090624;28;20028;-75
2023/03/07 01:43:22;;;;;;;1.85;1.70;;;;;;;16.79;36.72;99644.72;5104377;28;20044;-76
2023/03/07 01:45:47;;;;;;;2.42;1.55;;;;;;;16.79;36.79;99646.59;5096307;28;20043;-76
2023/03/07 01:48:13;;;;;;;1.70;1.60;;;;;;;16.78;36.79;99640.38;5090251;28;20021;-75
2023/03/07 01:50:38;;;;;;;1.80;1.38;;;;;;;16.76;36.68;99631.66;5104545;28;20111;-76
2023/03/07 01:53:04;;;;;;;1.38;1.27;;;;;;;16.73;36.75;99624.81;5094841;28;20070;-75
2023/03/07 01:55:31;;;;;;;1.92;1.65;;;;;;;16.19;36.72;99533.03;5092305;28;20051;-75
2023/03/07 01:57:59;;;;;;;1.55;1.27;;;;;;;16.72;36.83;99620.47;5089313;28;20025;-75
2023/03/07 02:00:28;;;;;;;2.88;1.60;;;;;;;16.70;36.71;99618.97;5091364;28;20043;-76
2023/03/07 02:02:59;;;;;;;1.50;1.40;;;;;;;16.69;36.77;99617.28;5096840;28;20131;-75
2023/03/07 02:05:32;;;;;;;1.40;1.30;;;;;;;16.69;36.91;99618.13;5101538;28;20032;-76
2023/03/07 02:07:59;;;;;;;1.85;1.60;;;;;;;16.68;36.75;99621.00;5092768;28;20039;-75
2023/03/07 02:10:24;;;;;;;2.58;1.70;;;;;;;16.67;36.73;99620.16;5093805;28;20028;-76
2023/03/07 02:12:51;;;;;;;1.92;1.40;;;;;;;16.20;37.02;99537.38;5094192;28;20085;-75
2023/03/07 02:15:16;;;;;;;2.05;1.60;;;;;;;16.09;36.71;99519.03;5087016;28;20029;-76
2023/03/07 02:17:42;;;;;;;2.17;1.60;;;;;;;16.07;36.84;99505.00;5090987;28;20028;-76
2023/03/07 02:20:30;;;;;;;1.85;1.55;;;;;;;16.65;36.98;99605.25;5092069;28;20055;-75
2023/03/07 02:22:56;;;;;;;3.57;1.87;;;;;;;16.15;36.97;99521.81;5100201;28;20028;-76
2023/03/07 02:25:41;;;;;;;2.00;1.80;;;;;;;16.63;36.86;99605.44;5090545;28;20730;-76
2023/03/07 02:28:09;;;;;;;1.92;1.50;;;;;;;15.98;36.94;99499.72;5089219;28;20028;-75
2023/03/07 02:30:36;;;;;;;1.83;1.55;;;;;;;16.25;36.95;99543.00;5095940;28;20107;-75
2023/03/07 02:33:01;;;;;;;1.60;1.33;;;;;;;16.62;36.84;99611.00;5088305;28;20921;-75
2023/03/07 02:35:27;;;;;;;1.73;1.60;;;;;;;16.60;36.91;99600.44;5100889;28;20028;-75
2023/03/07 02:37:58;;;;;;;2.20;1.58;;;;;;;16.61;36.88;99612.00;5087824;28;20038;-75
2023/03/07 02:40:26;;;;;;;2.53;1.98;;;;;;;16.10;36.72;99528.72;5093918;28;20027;-75
2023/03/07 02:42:53;;;;;;;2.72;1.85;;;;;;;16.58;36.97;99602.50;5088723;28;20045;-75
2023/03/07 02:45:19;;;;;;;1.50;1.40;;;;;;;16.50;36.91;99591.84;5090503;28;20035;-76
2023/03/07 02:47:44;;;;;;;2.20;1.88;;;;;;;16.54;36.69;99592.31;5089050;28;20033;-75
2023/03/07 02:50:10;;;;;;;2.05;1.63;;;;;;;16.48;37.02;99588.50;5092197;28;20036;-76
2023/03/07 02:52:36;;;;;;;1.73;1.40;;;;;;;16.55;36.91;99593.97;5090475;28;20054;-76
2023/03/07 02:55:02;;;;;;;1.75;1.50;;;;;;;15.97;36.90;99508.78;5090444;28;20024;-76
2023/03/07 02:57:27;;;;;;;2.25;1.38;;;;;;;16.08;36.98;99520.88;5087922;28;20046;-76
2023/03/07 02:59:52;;;;;;;1.30;1.20;;;;;;;16.53;37.09;99593.34;5086053;28;20032;-75
2023/03/07 03:02:18;;;;;;;1.63;1.40;;;;;;;15.93;37.06;99502.13;5093695;28;20056;-75
2023/03/07 03:04:43;;;;;;;2.72;1.50;;;;;;;16.52;36.89;99595.16;5089723;28;20062;-76
2023/03/07 03:07:08;;;;;;;2.33;1.50;;;;;;;16.50;37.00;99590.00;5088217;28;20061;-76
2023/03/07 03:09:33;;;;;;;2.38;1.50;;;;;;;15.94;36.91;99511.81;5089129;28;20038;-75
2023/03/07 03:11:59;;;;;;;1.98;1.48;;;;;;;16.50;36.78;99594.53;5094544;28;20044;-74
2023/03/07 03:14:24;;;;;;;1.60;1.50;;;;;;;16.45;36.83;99583.53;5089272;28;20030;-74
2023/03/07 03:16:53;;;;;;;2.60;1.33;;;;;;;16.39;36.89;99570.84;5087907;28;20078;-75
2023/03/07 03:19:18;;;;;;;2.00;1.50;;;;;;;16.47;36.89;99584.16;5092165;28;20055;-75
2023/03/07 03:21:44;;;;;;;2.15;1.38;;;;;;;16.45;36.98;99587.03;5092567;28;20028;-75
2023/03/07 03:24:09;;;;;;;2.85;1.70;;;;;;;15.89;36.69;99505.34;5088752;28;20389;-75
2023/03/07 03:26:36;;;;;;;3.28;2.08;;;;;;;15.87;37.02;99491.28;5092928;28;20031;-75
2023/03/07 03:29:03;;;;;;;2.13;1.42;;;;;;;16.37;36.90;99575.56;5083248;28;20031;-75
2023/03/07 03:31:29;;;;;;;1.73;1.55;;;;;;;15.92;37.24;99513.84;5100286;28;20021;-75
2023/03/07 03:33:55;;;;;;;3.45;1.92;;;;;;;16.42;36.94;99583.88;5087455;28;20078;-75
2023/03/07 03:36:24;;;;;;;1.48;1.35;;;;;;;16.39;37.06;99590.44;5091097;28;20472;-74
2023/03/07 03:38:51;;;;;;;1.48;1.35;;;;;;;15.85;36.95;99493.34;5097898;28;20040;-75
2023/03/07 03:41:16;;;;;;;1.90;1.45;;;;;;;16.41;36.96;99582.22;5091911;28;20028;-75
2023/03/07 03:43:42;;;;;;;1.95;1.50;;;;;;;16.41;36.96;99584.91;5086383;28;20120;-74
2023/03/07 03:46:08;;;;;;;1.88;1.45;;;;;;;16.39;37.23;99589.59;5097145;28;20034;-74
2023/03/07 03:48:33;;;;;;;3.10;1.85;;;;;;;16.35;36.99;99577.59;5101191;28;20029;-75
2023/03/07 03:51:07;;;;;;;3.17;1.67;;;;;;;16.38;37.02;99587.94;5079639;28;20385;-74
2023/03/07 03:53:34;;;;;;;1.92;1.30;;;;;;;16.36;36.96;99590.84;5089096;28;20099;-74
2023/03/07 03:56:04;;;;;;;1.60;1.30;;;;;;;16.37;36.99;99580.94;5095225;28;20042;-75
2023/03/07 03:58:30;;;;;;;2.15;1.58;;;;;;;16.25;37.05;99562.59;5092367;28;20055;-75
2023/03/07 04:00:56;;;;;;;2.88;1.50;;;;;;;16.32;37.00;99577.97;5087102;28;20029;-76
2023/03/07 04:03:21;;;;;;;2.08;1.60;;;;;;;15.92;37.12;99519.19;5086644;28;20050;-76
2023/03/07 04:05:46;;;;;;;1.50;1.33;;;;;;;16.34;37.10;99579.44;5095091;28;20035;-75
2023/03/07 04:08:12;;;;;;;2.65;1.30;;;;;;;16.34;36.90;99587.47;5091197;28;21323;-76
2023/03/07 04:10:37;;;;;;;3.03;1.60;;;;;;;16.13;36.78;99550.66;5091361;28;20485;-76
2023/03/07 04:13:02;;;;;;;3.83;1.40;;;;;;;16.30;36.88;99586.19;5102079;28;20054;-75
2023/03/07 04:15:28;;;;;;;1.92;1.42;;;;;;;16.30;36.75;99588.03;5095406;28;20032;-75
2023/03/07 04:17:53;;;;;;;1.60;1.50;;;;;;;16.28;36.81;99568.63;5099796;28;20031;-75
2023/03/07 04:20:18;;;;;;;2.80;1.60;;;;;;;15.83;36.82;99501.53;5088880;28;20100;-76
2023/03/07 04:22:43;;;;;;;2.25;1.30;;;;;;;15.69;36.77;99502.34;5083013;28;20028;-76
2023/03/07 04:25:09;;;;;;;1.55;1.42;;;;;;;16.24;36.91;99577.03;5094893;28;20050;-76
2023/03/07 04:27:34;;;;;;;2.35;1.40;;;;;;;15.84;36.82;99503.19;5087406;28;20044;-75
2023/03/07 04:30:00;;;;;;;1.83;1.58;;;;;;;15.59;36.84;99458.84;5088570;28;20108;-75
2023/03/07 04:32:25;;;;;;;2.47;1.50;;;;;;;15.31;36.89;99415.78;5088755;28;20047;-75
2023/03/07 04:34:50;;;;;;;3.88;1.50;;;;;;;16.22;36.87;99556.75;5091516;28;20078;-73
2023/03/07 04:37:16;;;;;;;3.33;1.98;;;;;;;15.62;36.85;99458.50;5086235;28;20035;-75
2023/03/07 04:39:41;;;;;;;2.53;1.50;;;;;;;16.07;36.94;99538.00;5093437;28;20036;-75
2023/03/07 04:42:06;;;;;;;2.13;1.73;;;;;;;15.69;37.02;99472.88;5092928;28;20111;-76
2023/03/07 04:44:32;;;;;;;1.63;1.52;;;;;;;16.15;36.97;99548.63;5089849;28;20050;-76
2023/03/07 04:46:57;;;;;;;1.52;1.42;;;;;;;16.18;36.87;99559.00;5102274;28;20032;-75
2023/03/07 04:49:22;;;;;;;2.42;1.40;;;;;;;16.18;36.94;99558.16;5089165;28;20115;-76
2023/03/07 04:51:47;;;;;;;1.60;1.40;;;;;;;16.08;36.98;99531.63;5100539;28;20017;-75
2023/03/07 04:54:13;;;;;;;2.03;1.50;;;;;;;16.17;36.94;99549.28;5087990;28;20032;-75
2023/03/07 04:56:38;;;;;;;2.05;1.60;;;;;;;15.36;36.81;99430.28;5092454;28;20486;-75
2023/03/07 04:59:03;;;;;;;2.38;1.52;;;;;;;16.16;36.75;99544.94;5089139;28;20028;-75
2023/03/07 05:01:28;;;;;;;2.28;1.52;;;;;;;16.14;37.02;99544.31;5081686;28;20023;-75
2023/03/07 05:03:54;;;;;;;1.85;1.20;;;;;;;15.38;36.87;99414.88;5088035;28;20041;-74
2023/03/07 05:06:19;;;;;;;2.28;1.40;;;;;;;16.13;36.83;99539.94;5092015;28;20024;-75
2023/03/07 05:08:44;;;;;;;2.88;1.45;;;;;;;16.11;36.99;99528.56;5088817;28;20115;-74
2023/03/07 05:11:10;;;;;;;2.15;1.50;;;;;;;15.53;36.87;99443.53;5087735;28;20077;-75
2023/03/07 05:13:35;;;;;;;1.90;1.42;;;;;;;16.11;36.96;99536.63;5089038;28;20084;-75
2023/03/07 05:16:00;;;;;;;1.92;1.40;;;;;;;16.09;36.96;99529.75;5093889;28;20378;-75
2023/03/07 05:18:26;;;;;;;2.15;1.55;;;;;;;16.10;36.92;99534.97;5090628;28;20447;-76
2023/03/07 05:20:51;;;;;;;1.90;1.45;;;;;;;16.10;37.04;99536.78;5090529;28;20024;-75
2023/03/07 05:23:17;;;;;;;1.85;1.70;;;;;;;15.98;36.94;99512.28;5094978;28;20032;-74
2023/03/07 05:25:43;;;;;;;2.80;1.58;;;;;;;15.67;36.86;99480.25;5095734;28;20164;-75
2023/03/07 05:28:08;;;;;;;1.42;1.30;;;;;;;15.90;36.93;99513.19;5102161;28;20379;-75
2023/03/07 05:30:33;;;;;;;2.53;1.50;;;;;;;16.07;37.07;99534.50;5090162;28;20031;-74
2023/03/07 05:32:59;;;;;;;1.63;1.48;;;;;;;16.06;36.46;99530.97;5104847;28;20059;-75
2023/03/07 05:35:24;;;;;;;1.30;1.20;;;;;;;16.00;37.05;99520.97;5096192;28;20055;-75
2023/03/07 05:37:50;;;;;;;2.42;1.50;;;;;;;15.90;37.14;99513.19;5081482;28;20045;-73
2023/03/07 05:40:17;;;;;;;2.58;1.58;;;;;;;16.05;36.98;99528.47;5095313;28;20032;-75
2023/03/07 05:42:42;;;;;;;1.40;1.30;;;;;;;16.04;37.01;99530.31;5103155;28;20024;-74
2023/03/07 05:45:08;;;;;;;2.75;1.70;;;;;;;16.04;36.96;99530.31;5094196;28;20078;-75
2023/03/07 05:47:33;;;;;;;2.00;1.35;;;;;;;15.12;36.89;99387.66;5088852;28;20024;-75
2023/03/07 05:49:59;;;;;;;2.72;1.30;;;;;;;16.01;37.02;99530.66;5100081;28;20470;-75
2023/03/07 05:52:24;;;;;;;1.92;1.45;;;;;;;15.37;36.98;99420.41;5086953;28;20031;-76
2023/03/07 05:54:50;;;;;;;2.67;1.40;;;;;;;15.85;36.98;99493.34;5081846;28;20021;-75
2023/03/07 05:57:15;;;;;;;1.83;1.40;;;;;;;15.97;37.02;99513.28;5090023;28;20432;-74
2023/03/07 05:59:40;;;;;;;3.85;1.40;;;;;;;15.53;37.08;99446.22;5087502;28;20070;-75
2023/03/07 06:02:06;;;;;;;2.00;1.48;;;;;;;15.77;36.88;99488.06;5101606;28;20036;-75
2023/03/07 06:04:31;;;;;;;1.85;1.35;;;;;;;15.98;36.95;99529.22;5090923;28;20588;-74
2023/03/07 06:06:56;;;;;;;2.25;1.33;;;;;;;15.93;36.86;99515.53;5090588;28;20028;-76
2023/03/07 06:09:24;;;;;;;1.88;1.30;;;;;;;15.52;36.72;99453.41;5096327;28;20080;-76
2023/03/07 06:11:49;;;;;;;4.47;1.55;;;;;;;15.50;36.85;99458.97;5094232;28;20020;-75
2023/03/07 06:14:14;;;;;;;2.58;1.35;;;;;;;15.96;36.98;99533.91;5089561;28;20070;-75
2023/03/07 06:16:40;;;;;;;1.45;1.35;;;;;;;15.39;36.86;99454.03;5100897;28;20530;-75
2023/03/07 06:19:08;;;;;;;1.63;1.30;;;;;;;15.93;36.87;99545.00;5098376;28;20036;-75
2023/03/07 06:21:33;;;;;;;1.65;1.52;;;;;;;15.47;36.97;99482.59;5093130;28;20033;-75
2023/03/07 06:23:58;;;;;;;1.63;1.42;;;;;;;15.49;36.77;99484.06;5101880;28;20024;-75
2023/03/07 06:26:24;;;;;;;3.33;1.77;;;;;;;15.93;36.75;99553.06;5090097;28;20028;-75
2023/03/07 06:28:49;;;;;;;2.80;1.42;;;;;;;15.89;36.86;99564.31;5095317;28;20028;-74
2023/03/07 06:31:16;;;;;;;1.73;1.30;;;;;;;15.91;36.78;99564.97;5091243;28;20036;-75
2023/03/07 06:33:42;;;;;;;1.63;1.40;;;;;;;15.36;36.83;99478.50;5072367;28;20016;-75
2023/03/07 06:36:09;;;;;;;2.33;1.27;;;;;;;15.38;36.81;99486.38;5086076;28;20109;-75
2023/03/07 06:38:35;;;;;;;2.05;1.50;;;;;;;15.80;36.91;99560.03;5076877;28;20025;-75
2023/03/07 06:41:00;;;;;;;1.67;1.30;;;;;;;15.84;36.78;99570.19;5092195;28;20032;-75
2023/03/07 06:43:25;;;;;;;2.60;1.40;;;;;;;15.85;36.92;99571.88;5089727;28;20116;-75
2023/03/07 06:45:51;;;;;;;3.08;1.67;;;;;;;15.81;36.90;99569.75;5095437;28;20038;-74
2023/03/07 06:48:17;;;;;;;2.28;1.25;;;;;;;15.85;36.84;99568.38;5101485;28;20032;-74
2023/03/07 06:50:43;;;;;;;1.65;1.20;;;;;;;15.84;36.97;99570.19;5087130;28;20009;-75
2023/03/07 06:53:09;;;;;;;2.10;1.60;;;;;;;15.84;36.88;99586.28;5091207;28;20021;-74
2023/03/07 06:55:34;;;;;;;1.95;1.40;;;;;;;15.35;36.91;99508.13;5094657;28;20101;-74
2023/03/07 06:57:59;;;;;;;2.00;1.33;;;;;;;15.81;37.04;99580.47;5090389;28;20049;-74
2023/03/07 07:00:25;;;;;;;2.13;1.40;;;;;;;15.32;36.90;99505.81;5093666;28;20048;-75
2023/03/07 07:02:50;;;;;;;1.42;1.33;;;;;;;15.81;36.92;99585.81;5090838;28;20465;-74
2023/03/07 07:05:15;;;;;;;1.42;1.33;;;;;;;15.34;36.94;99520.69;5088729;28;20123;-75
2023/03/07 07:07:41;;;;;;;2.30;1.48;;;;;;;15.75;36.99;99588.19;5087358;28;20029;-74
2023/03/07 07:10:07;;;;;;;2.10;1.58;;;;;;;15.36;36.94;99524.00;5091900;28;20163;-75
2023/03/07 07:12:32;;;;;;;3.47;1.67;;;;;;;15.78;36.92;99592.38;5090408;28;20025;-76
2023/03/07 07:15:00;;;;;;;1.38;1.20;;;;;;;15.62;37.14;99579.91;5088441;28;20039;-76
2023/03/07 07:17:27;;;;;;;2.17;1.50;;;;;;;15.74;36.92;99612.50;5086631;28;20582;-75
2023/03/07 07:19:52;;;;;;;1.50;1.40;;;;;;;15.74;36.92;99599.94;5076814;28;20032;-74
2023/03/07 07:22:17;;;;;;;1.75;1.58;;;;;;;15.73;37.00;99603.63;5089939;28;20045;-74
2023/03/07 07:24:42;;;;;;;1.80;1.20;;;;;;;15.34;36.95;99544.81;5089160;28;20040;-75
2023/03/07 07:27:08;;;;;;;2.08;1.60;;;;;;;15.72;36.96;99601.97;5091163;28;20074;-75
2023/03/07 07:29:33;;;;;;;1.48;1.35;;;;;;;15.64;37.14;99593.13;5084865;28;20019;-75
2023/03/07 07:31:59;;;;;;;1.67;1.48;;;;;;;15.29;37.10;99538.28;5089546;28;20020;-75
2023/03/07 07:34:24;;;;;;;1.73;1.50;;;;;;;15.24;37.04;99534.31;5109497;28;20024;-74
2023/03/07 07:36:51;;;;;;;2.55;1.50;;;;;;;15.69;37.10;99598.81;5096419;28;20028;-74
2023/03/07 07:39:16;;;;;;;1.50;1.40;;;;;;;15.25;37.05;99525.28;5092273;28;20835;-75
2023/03/07 07:41:43;;;;;;;1.58;1.48;;;;;;;15.68;37.09;99592.63;5098515;28;20626;-75
2023/03/07 07:44:08;;;;;;;1.88;1.40;;;;;;;15.67;37.10;99598.13;5102091;28;20050;-75
2023/03/07 07:46:34;;;;;;;2.92;1.75;;;;;;;15.62;37.07;99595.13;5102211;28;20016;-75
2023/03/07 07:48:59;;;;;;;2.00;1.45;;;;;;;15.66;37.00;99600.00;5093140;28;20031;-75
2023/03/07 07:51:24;;;;;;;3.75;1.40;;;;;;;15.66;37.00;99593.81;5088528;28;20028;-75
2023/03/07 07:53:50;;;;;;;1.50;1.40;;;;;;;15.66;37.08;99594.63;5094234;28;20036;-73
2023/03/07 07:56:15;;;;;;;1.88;1.33;;;;;;;15.29;36.97;99536.44;5098101;28;20033;-74
2023/03/07 07:58:40;;;;;;;1.65;1.30;;;;;;;15.65;36.98;99586.78;5092253;28;20032;-74
2023/03/07 08:01:15;;;;;;;1.90;1.45;;;;;;;15.64;36.98;99601.16;5097780;28;20524;-75
2023/03/07 08:03:41;;;;;;;1.50;1.40;;;;;;;15.60;37.07;99581.09;5096215;28;20653;-75
2023/03/07 08:06:06;;;;;;;1.40;1.30;;;;;;;15.08;36.98;99502.31;5101690;28;20028;-75
2023/03/07 08:08:31;;;;;;;1.80;1.50;;;;;;;15.51;37.00;99564.25;5090431;28;20053;-76
2023/03/07 08:10:57;;;;;;;2.20;1.65;;;;;;;15.24;36.96;99531.63;5092693;28;20072;-75
2023/03/07 08:13:22;;;;;;;2.45;1.38;;;;;;;15.62;37.19;99593.28;5094542;28;20067;-75
2023/03/07 08:15:47;;;;;;;1.30;1.20;;;;;;;15.59;37.06;99582.94;5092707;28;20040;-75
2023/03/07 08:18:13;;;;;;;1.70;1.40;;;;;;;15.08;37.11;99501.44;5088184;28;20024;-75
2023/03/07 08:20:40;;;;;;;2.08;1.33;;;;;;;15.22;37.10;99541.69;5087417;28;20476;-75
2023/03/07 08:23:08;;;;;;;2.33;1.50;;;;;;;15.50;37.01;99578.66;5094465;28;20080;-75
2023/03/07 08:25:33;;;;;;;1.50;1.27;;;;;;;15.60;37.13;99589.16;5096577;28;20035;-76
2023/03/07 08:28:01;;;;;;;1.58;1.33;;;;;;;15.11;36.96;99517.16;5087470;28;20057;-76
2023/03/07 08:30:28;;;;;;;2.13;1.30;;;;;;;15.62;37.07;99593.28;5087044;28;20050;-75
2023/03/07 08:32:55;;;;;;;1.40;1.30;;;;;;;15.07;37.07;99497.94;5093477;28;20050;-75
2023/03/07 08:35:21;;;;;;;1.80;1.35;;;;;;;15.15;37.03;99511.28;5089155;28;20054;-74
2023/03/07 08:37:50;;;;;;;1.75;1.60;;;;;;;15.06;36.98;99495.47;5086960;28;20096;-74
2023/03/07 08:40:15;;;;;;;2.20;1.48;;;;;;;15.62;36.99;99604.00;5085223;28;20062;-75
2023/03/07 08:42:42;;;;;;;1.92;1.40;;;;;;;15.61;37.12;99588.94;5092606;28;20030;-74
2023/03/07 08:45:08;;;;;;;2.13;1.60;;;;;;;15.13;37.26;99531.22;5088710;28;20111;-75
2023/03/07 08:47:33;;;;;;;2.47;1.27;;;;;;;15.60;37.09;99595.34;5092310;28;20027;-74
2023/03/07 08:49:58;;;;;;;1.77;1.50;;;;;;;15.56;37.15;99593.19;5086182;28;20028;-76
2023/03/07 08:52:24;;;;;;;2.50;1.70;;;;;;;15.13;36.95;99532.06;5096678;28;20032;-75
2023/03/07 08:54:49;;;;;;;1.73;1.48;;;;;;;15.10;36.70;99520.88;5090133;28;20029;-74
2023/03/07 08:57:14;;;;;;;1.30;1.20;;;;;;;15.63;37.02;99604.84;5094060;28;20024;-75
2023/03/07 08:59:40;;;;;;;3.28;1.58;;;;;;;15.62;37.11;99608.53;5092269;28;20028;-75
2023/03/07 09:02:11;;;;;;;1.90;1.40;;;;;;;15.39;37.03;99571.88;5092373;28;20033;-76
2023/03/07 09:04:37;;;;;;;1.75;1.40;;;;;;;15.58;37.15;99602.69;5095044;28;20048;-75
2023/03/07 09:07:02;;;;;;;1.63;1.10;;;;;;;15.60;36.97;99597.19;5091542;28;20100;-76
2023/03/07 09:09:29;;;;;;;1.63;1.40;;;;;;;15.60;37.12;99599.84;5079081;28;20031;-76
2023/03/07 09:11:54;;;;;;;1.38;1.27;;;;;;;15.49;37.09;99590.38;5092479;28;20027;-76
2023/03/07 09:14:19;;;;;;;1.98;1.42;;;;;;;15.60;37.12;99599.84;5093447;28;20122;-76
2023/03/07 09:16:45;;;;;;;1.48;1.10;;;;;;;15.59;37.07;99601.72;5091820;28;20090;-75
2023/03/07 09:19:10;;;;;;;1.60;1.30;;;;;;;15.47;37.09;99590.56;5090906;28;20032;-76
2023/03/07 09:21:35;;;;;;;1.50;1.38;;;;;;;15.59;37.20;99607.06;5087362;28;20036;-75
2023/03/07 09:24:00;;;;;;;1.65;1.40;;;;;;;15.01;37.20;99509.38;5096380;28;20037;-75
2023/03/07 09:26:26;;;;;;;1.80;1.45;;;;;;;15.43;37.07;99575.03;5102746;28;20025;-76
2023/03/07 09:28:51;;;;;;;1.60;1.25;;;;;;;15.59;37.11;99604.38;5091393;28;20028;-74
2023/03/07 09:31:16;;;;;;;1.70;1.33;;;;;;;15.60;37.08;99602.53;5092392;28;20024;-75
2023/03/07 09:33:42;;;;;;;2.08;1.42;;;;;;;15.60;37.04;99599.84;5103532;28;20051;-76
2023/03/07 09:36:10;;;;;;;1.70;1.60;;;;;;;15.61;37.09;99601.53;5087435;28;20032;-74
2023/03/07 09:38:36;;;;;;;1.17;1.10;;;;;;;15.14;37.16;99523.00;5092160;28;20425;-76
2023/03/07 09:41:26;;;;;;;1.30;1.20;;;;;;;15.60;37.10;99594.50;5098829;28;20101;-75
2023/03/07 09:44:00;;;;;;;1.42;1.30;;;;;;;15.14;37.03;99530.22;5095055;28;20035;-75
2023/03/07 09:46:49;;;;;;;1.60;1.50;;;;;;;15.14;37.07;99523.00;5094362;28;20043;-74
2023/03/07 09:49:18;;;;;;;1.70;1.23;;;;;;;15.61;37.16;99588.13;5097980;28;20052;-75
2023/03/07 09:51:45;;;;;;;1.63;1.30;;;;;;;15.14;37.08;99524.84;5098584;28;20028;-75
2023/03/07 09:54:23;;;;;;;1.48;1.38;;;;;;;15.61;37.02;99597.00;5085669;28;20080;-75
2023/03/07 09:56:53;;;;;;;2.22;1.40;;;;;;;15.58;37.08;99585.78;5090105;28;20024;-74
2023/03/07 09:59:39;;;;;;;2.10;1.52;;;;;;;15.61;37.14;99585.44;5102337;28;20118;-75
2023/03/07 10:02:25;;;;;;;1.48;1.38;;;;;;;15.62;37.08;99589.78;5095582;28;20024;-75
2023/03/07 10:04:58;;;;;;;1.55;1.45;;;;;;;15.61;37.07;99588.94;5089299;28;20108;-75
2023/03/07 10:07:24;;;;;;;1.48;1.30;;;;;;;15.57;37.08;99581.47;5097343;28;20077;-76
2023/03/07 10:09:54;;;;;;;1.83;1.30;;;;;;;15.62;37.11;99592.47;5097512;28;20036;-76
2023/03/07 10:12:38;;;;;;;2.43;1.40;;;;;;;15.62;37.01;99598.66;5099360;28;20020;-76
2023/03/07 10:15:15;;;;;;;1.27;1.17;;;;;;;15.63;37.07;99602.16;5103901;28;20027;-76
2023/03/07 10:17:59;;;;;;;1.27;1.17;;;;;;;15.64;37.02;99603.84;5097255;28;20531;-76
2023/03/07 10:20:39;;;;;;;2.00;1.40;;;;;;;15.64;37.00;99607.38;5096345;28;20024;-76
2023/03/07 10:23:14;;;;;;;2.38;1.48;;;;;;;15.17;37.21;99530.69;5097502;28;20032;-75
2023/03/07 10:25:48;;;;;;;1.70;1.20;;;;;;;15.65;37.45;99601.00;5090742;28;20092;-76
2023/03/07 10:28:29;;;;;;;2.22;1.30;;;;;;;15.50;36.98;99587.53;5099004;28;20054;-75
2023/03/07 10:31:29;;;;;;;1.55;1.30;;;;;;;15.65;37.10;99610.91;5097332;28;20103;-75
2023/03/07 10:33:55;;;;;;;1.50;1.40;;;;;;;15.60;36.97;99606.03;5091437;28;20520;-75
2023/03/07 10:36:26;;;;;;;1.98;1.40;;;;;;;15.19;36.86;99535.84;5080498;28;20031;-75
2023/03/07 10:39:03;;;;;;;2.30;1.60;;;;;;;15.54;37.08;99603.22;5091381;28;20106;-74
2023/03/07 10:41:29;;;;;;;1.55;1.27;;;;;;;14.68;36.92;99458.72;5103094;28;20028;-75
2023/03/07 10:43:55;;;;;;;1.40;1.30;;;;;;;15.63;37.05;99616.41;5087542;28;20075;-75
2023/03/07 10:46:28;;;;;;;1.80;1.30;;;;;;;15.62;37.04;99609.38;5095293;28;20028;-75
2023/03/07 10:49:05;;;;;;;2.25;1.48;;;;;;;15.19;36.96;99552.75;5094785;28;20053;-75
2023/03/07 10:51:46;;;;;;;1.52;1.40;;;;;;;15.63;37.13;99616.41;5091522;28;20028;-76
2023/03/07 10:54:15;;;;;;;1.98;1.63;;;;;;;15.62;37.09;99612.03;5092047;28;20096;-75
2023/03/07 10:56:40;;;;;;;1.92;1.50;;;;;;;15.44;36.98;99582.88;5093465;28;20071;-76
2023/03/07 10:59:13;;;;;;;1.52;1.40;;;;;;;15.63;37.15;99627.13;5085427;28;20028;-75
2023/03/07 11:01:53;;;;;;;2.08;1.80;;;;;;;15.63;37.09;99612.88;5091524;28;20035;-76
2023/03/07 11:04:22;;;;;;;1.80;1.50;;;;;;;15.64;37.12;99614.56;5091348;28;20485;-74
2023/03/07 11:06:54;;;;;;;2.33;1.65;;;;;;;15.64;36.94;99612.75;5091694;28;20028;-75
2023/03/07 11:09:28;;;;;;;2.78;1.95;;;;;;;15.64;37.10;99618.09;5090183;28;20024;-75
2023/03/07 11:11:59;;;;;;;1.65;1.52;;;;;;;15.64;37.07;99610.06;5088444;28;20024;-75
2023/03/07 11:14:26;;;;;;;2.25;1.48;;;;;;;15.65;37.08;99610.91;5090439;28;20032;-75
2023/03/07 11:16:58;;;;;;;1.70;1.40;;;;;;;15.60;37.13;99600.69;5086385;28;20021;-75
2023/03/07 11:19:38;;;;;;;2.10;1.52;;;;;;;15.65;37.06;99609.06;5091343;28;20115;-75
2023/03/07 11:22:27;;;;;;;2.08;1.70;;;;;;;15.67;37.09;99611.53;5090466;28;20025;-75
2023/03/07 11:24:54;;;;;;;;;;;;;;;15.67;37.02;99619.56;5084082;28;20111;-75
2023/03/07 11:27:35;;;;;;;1.40;1.30;;;;;;;15.64;37.07;99607.38;5094673;28;19912;-75
2023/03/07 11:30:21;;;;;;;2.40;1.70;;;;;;;15.63;37.06;99608.38;5089108;28;20050;-75
2023/03/07 11:33:01;;;;;;;1.45;1.33;;;;;;;15.65;37.01;99613.56;5101523;28;20547;-75
2023/03/07 11:35:33;;;;;;;1.83;1.40;;;;;;;15.24;36.97;99538.81;5098940;28;20024;-76